Terminal Aerodrome Forecast
Issued by NWS

Home | Current Version | Previous Version | Text Only | Print | Product List | Glossary On
Versions: 1 2 3 4 5 6 7 8 9 10 11 12 13 14 15 16
000
FTUS46 KEKA 222300
TAFUKI
TAF
KUKI 222327Z 2300/2324 15010G16KT P6SM SCT050 BKN150
     FM230200 15008KT P6SM SCT050 BKN150
     FM230500 15003KT P6SM BKN150
     FM231200 35004KT P6SM SCT020 BKN100
     FM232100 33008KT P6SM BKN100=

USA.gov is the U.S. government's official web portal to all federal, state and local government web resources and services.